Time;durP1;ratioP1;P1;durP2;ratioP2;P2;SDS_P1;SDS_P2;PMS_P1;PMS_P2;Temp;Humidity;BMP_temperature;BMP_pressure;BME280_temperature;BME280_humidity;BME280_pressure;Samples;Min_cycle;Max_cycle;Signal;HPM_P1;HPM_P2
2022/05/13 00:02:28;;;;;;;1.80;0.77;;;16.60;76.10;;;;;;10431326;28;20486;-60
2022/05/13 00:07:30;;;;;;;5.75;0.88;;;16.50;80.30;;;;;;10429459;28;20053;-59
2022/05/13 00:12:38;;;;;;;1.98;0.70;;;16.30;81.90;;;;;;10403393;28;20045;-59
2022/05/13 00:17:39;;;;;;;2.60;0.73;;;16.10;83.60;;;;;;10420271;28;20048;-59
2022/05/13 00:22:48;;;;;;;2.97;0.63;;;16.10;84.40;;;;;;10431279;28;20102;-59
2022/05/13 00:27:50;;;;;;;2.83;0.75;;;16.00;85.00;;;;;;10426431;28;20393;-59
2022/05/13 00:32:52;;;;;;;4.32;0.85;;;15.90;87.20;;;;;;10427515;28;20060;-60
2022/05/13 00:37:53;;;;;;;2.22;0.70;;;15.80;90.20;;;;;;10425504;28;20107;-60
2022/05/13 00:43:05;;;;;;;0.90;0.50;;;15.70;90.40;;;;;;10427741;28;20067;-59
2022/05/13 00:48:07;;;;;;;3.13;1.00;;;15.50;88.80;;;;;;10427177;28;20064;-59
2022/05/13 00:53:09;;;;;;;1.73;0.60;;;15.30;90.90;;;;;;10408856;28;20053;-59
2022/05/13 00:58:17;;;;;;;3.17;0.70;;;15.20;91.10;;;;;;10421543;28;20063;-59
2022/05/13 01:03:20;;;;;;;2.58;0.93;;;15.10;91.60;;;;;;10428621;28;20044;-59
2022/05/13 01:08:23;;;;;;;3.75;0.70;;;15.10;92.10;;;;;;10420809;28;20053;-59
2022/05/13 01:13:28;;;;;;;3.20;0.90;;;14.80;92.90;;;;;;10423121;28;20056;-60
2022/05/13 01:18:36;;;;;;;5.75;1.52;;;14.80;94.40;;;;;;10414502;28;20718;-58
2022/05/13 01:23:42;;;;;;;1.48;0.95;;;14.70;96.60;;;;;;10417106;28;20053;-59
2022/05/13 01:28:50;;;;;;;3.70;0.95;;;14.50;97.70;;;;;;10422327;28;20052;-59
2022/05/13 01:33:53;;;;;;;1.63;0.98;;;14.40;98.50;;;;;;10423935;28;20059;-59
2022/05/13 01:38:55;;;;;;;2.60;0.90;;;14.30;99.50;;;;;;10423882;28;20056;-59
2022/05/13 01:43:58;;;;;;;1.73;0.70;;;14.20;99.90;;;;;;10424363;28;20060;-59
2022/05/13 01:49:00;;;;;;;3.72;0.80;;;14.20;99.90;;;;;;10428260;28;20045;-59
2022/05/13 01:54:02;;;;;;;1.30;0.80;;;14.10;99.90;;;;;;10425864;28;20053;-59
2022/05/13 01:59:03;;;;;;;1.92;0.65;;;14.00;99.90;;;;;;10421189;28;20053;-59
2022/05/13 02:04:05;;;;;;;3.17;0.90;;;13.90;99.90;;;;;;10426097;28;20119;-58
2022/05/13 02:09:07;;;;;;;2.63;1.00;;;13.80;99.90;;;;;;10423252;28;20045;-59
2022/05/13 02:14:08;;;;;;;1.50;0.80;;;13.70;99.90;;;;;;10418171;28;20529;-60
2022/05/13 02:19:11;;;;;;;2.85;1.10;;;13.70;99.90;;;;;;10423078;28;20765;-59
2022/05/13 02:24:12;;;;;;;1.20;0.88;;;13.60;99.90;;;;;;10420132;28;20107;-56
2022/05/13 02:29:14;;;;;;;1.35;0.90;;;13.50;99.90;;;;;;10407661;28;20457;-57
2022/05/13 02:34:16;;;;;;;2.17;1.45;;;13.30;99.90;;;;;;10422960;28;20052;-57
2022/05/13 02:39:17;;;;;;;3.97;0.93;;;13.30;99.90;;;;;;10416974;28;20685;-58
2022/05/13 02:44:19;;;;;;;2.35;1.00;;;13.30;99.90;;;;;;10414691;28;20103;-58
2022/05/13 02:49:21;;;;;;;4.10;1.80;;;13.10;99.90;;;;;;10420907;28;20055;-58
2022/05/13 02:54:23;;;;;;;3.80;0.90;;;13.10;99.90;;;;;;10421260;28;20061;-57
2022/05/13 02:59:25;;;;;;;2.33;1.20;;;13.10;99.90;;;;;;10416015;28;20049;-57
2022/05/13 03:04:26;;;;;;;6.38;1.33;;;13.00;99.90;;;;;;10399557;28;20067;-58
2022/05/13 03:09:30;;;;;;;2.40;1.08;;;12.90;99.90;;;;;;10412875;28;20053;-58
2022/05/13 03:14:31;;;;;;;3.97;1.10;;;12.70;99.90;;;;;;10421650;28;20056;-58
2022/05/13 03:19:36;;;;;;;4.28;0.90;;;12.60;99.90;;;;;;10419599;28;20056;-58
2022/05/13 03:24:37;;;;;;;3.25;1.15;;;12.50;99.90;;;;;;10413337;28;20085;-58
2022/05/13 03:29:39;;;;;;;1.05;0.70;;;12.40;99.90;;;;;;10414926;28;20049;-58
2022/05/13 03:34:41;;;;;;;3.22;1.00;;;12.40;99.90;;;;;;10419493;28;20110;-57
2022/05/13 03:39:42;;;;;;;2.25;0.98;;;12.40;99.90;;;;;;10426089;28;20059;-60
2022/05/13 03:44:44;;;;;;;5.47;1.00;;;12.30;99.90;;;;;;10427393;28;20061;-60
2022/05/13 03:49:46;;;;;;;4.30;1.00;;;12.30;99.90;;;;;;10402850;28;20056;-60
2022/05/13 03:54:48;;;;;;;2.80;0.82;;;12.20;99.90;;;;;;10407619;28;20443;-60
2022/05/13 03:59:49;;;;;;;2.63;1.50;;;12.30;99.90;;;;;;10403786;28;20511;-60
2022/05/13 04:10:12;;;;;;;5.05;1.10;;;12.30;99.90;;;;;;10424059;28;20110;-60
2022/05/13 04:20:35;;;;;;;2.17;1.00;;;12.40;99.90;;;;;;10416624;28;20049;-60
2022/05/13 04:25:36;;;;;;;2.63;1.17;;;12.40;99.90;;;;;;10424472;28;20068;-60
2022/05/13 04:30:38;;;;;;;2.92;1.23;;;12.50;99.90;;;;;;10426490;28;20558;-60
2022/05/13 04:35:40;;;;;;;3.65;1.33;;;12.60;99.90;;;;;;10423098;28;20053;-60
2022/05/13 04:40:42;;;;;;;4.65;1.50;;;12.70;99.90;;;;;;10424749;28;20056;-61
2022/05/13 04:45:44;;;;;;;3.25;1.20;;;12.80;99.90;;;;;;10420894;28;20064;-61
2022/05/13 04:50:51;;;;;;;6.00;1.38;;;12.90;99.90;;;;;;10419946;28;20107;-61
2022/05/13 04:55:53;;;;;;;;;;;13.00;99.90;;;;;;10418436;28;20103;-60
2022/05/13 05:00:57;;;;;;;4.05;1.70;;;13.10;99.90;;;;;;10417779;28;19925;-60
2022/05/13 05:05:59;;;;;;;2.90;1.63;;;13.20;99.90;;;;;;10401775;28;22789;-60
2022/05/13 05:11:02;;;;;;;1.88;1.02;;;13.30;99.90;;;;;;10422665;28;20110;-60
2022/05/13 05:16:06;;;;;;;3.28;1.50;;;13.50;99.90;;;;;;10423689;28;20053;-60
2022/05/13 05:21:09;;;;;;;3.88;1.05;;;13.60;99.90;;;;;;10417447;28;20442;-60
2022/05/13 05:26:11;;;;;;;4.00;1.30;;;13.60;99.90;;;;;;10418066;28;20184;-61
2022/05/13 05:31:13;;;;;;;5.53;2.00;;;13.70;99.90;;;;;;10406931;28;20052;-61
2022/05/13 05:36:15;;;;;;;5.30;1.52;;;13.90;99.90;;;;;;10419589;28;20636;-61
2022/05/13 05:41:18;;;;;;;2.83;1.10;;;13.90;99.90;;;;;;10418877;28;20080;-60
2022/05/13 05:46:19;;;;;;;1.48;0.40;;;14.00;99.90;;;;;;10422089;28;20151;-60
2022/05/13 05:51:21;;;;;;;2.17;0.60;;;14.20;97.80;;;;;;10422574;28;20530;-60
2022/05/13 06:01:43;;;;;;;2.33;0.32;;;14.70;92.90;;;;;;10422834;28;20044;-59
2022/05/13 06:06:52;;;;;;;1.70;0.60;;;14.90;91.40;;;;;;10417353;28;20056;-60
2022/05/13 06:11:53;;;;;;;5.88;0.50;;;15.00;98.20;;;;;;10398909;28;20088;-59
2022/05/13 06:16:55;;;;;;;5.90;0.47;;;15.10;93.90;;;;;;10422838;28;20102;-60
2022/05/13 06:21:57;;;;;;;1.65;0.80;;;15.30;91.90;;;;;;10422798;28;20482;-60
2022/05/13 06:26:59;;;;;;;0.10;0.10;;;15.30;88.00;;;;;;10422342;28;20052;-60
2022/05/13 06:32:00;;;;;;;5.85;0.10;;;15.50;82.00;;;;;;10422199;28;20148;-60
2022/05/13 06:37:02;;;;;;;1.88;0.15;;;15.60;79.80;;;;;;10421012;28;20650;-60
2022/05/13 06:42:05;;;;;;;2.70;0.30;;;15.80;80.30;;;;;;10413672;28;20564;-61
2022/05/13 06:47:07;;;;;;;2.63;0.20;;;15.80;80.20;;;;;;10426665;28;20175;-61
2022/05/13 06:52:13;;;;;;;3.95;0.30;;;16.00;79.80;;;;;;10401631;28;20111;-60
2022/05/13 06:57:34;;;;;;;3.90;0.20;;;16.10;79.00;;;;;;10419362;28;20059;-60
2022/05/13 07:02:37;;;;;;;1.60;0.55;;;16.30;78.50;;;;;;10417442;28;20056;-62
2022/05/13 07:07:39;;;;;;;2.17;0.20;;;16.40;77.80;;;;;;10415008;28;20129;-61
2022/05/13 07:12:41;;;;;;;2.42;0.20;;;16.50;76.60;;;;;;10409113;28;20488;-61
2022/05/13 07:17:43;;;;;;;2.28;0.20;;;16.60;76.00;;;;;;10414912;28;20057;-61
2022/05/13 07:22:45;;;;;;;0.30;0.10;;;16.50;75.40;;;;;;10416962;28;20053;-61
2022/05/13 07:27:46;;;;;;;2.25;0.20;;;16.60;75.10;;;;;;10414310;28;20060;-62
2022/05/13 07:32:48;;;;;;;2.35;0.20;;;16.60;74.00;;;;;;10419090;28;20044;-61
2022/05/13 07:37:50;;;;;;;3.42;0.25;;;16.60;71.10;;;;;;10421891;28;20057;-61
2022/05/13 07:42:51;;;;;;;0.60;0.13;;;16.80;71.60;;;;;;10412213;28;20053;-61
2022/05/13 07:47:53;;;;;;;2.20;0.20;;;16.80;69.80;;;;;;10420418;28;20063;-61
2022/05/13 07:52:55;;;;;;;6.93;0.30;;;16.90;70.20;;;;;;10419140;28;20064;-61
2022/05/13 07:57:57;;;;;;;0.65;0.20;;;16.70;68.40;;;;;;10419188;28;20064;-61
2022/05/13 08:03:01;;;;;;;5.20;0.32;;;16.50;67.70;;;;;;10405351;28;20082;-60
2022/05/13 08:08:07;;;;;;;2.03;0.20;;;16.80;69.60;;;;;;10418477;28;20096;-59
2022/05/13 08:13:09;;;;;;;0.87;0.20;;;16.90;68.50;;;;;;10422089;28;20110;-60
2022/05/13 08:18:11;;;;;;;2.10;0.20;;;16.90;66.70;;;;;;10419313;28;20045;-60
2022/05/13 08:23:15;;;;;;;1.60;0.13;;;17.00;66.00;;;;;;10425380;28;20621;-60
2022/05/13 08:28:20;;;;;;;0.90;0.40;;;17.10;63.60;;;;;;10422143;28;20050;-59
2022/05/13 08:33:21;;;;;;;3.50;0.20;;;17.20;61.60;;;;;;10425070;28;20496;-59
2022/05/13 08:38:30;;;;;;;6.07;0.20;;;17.40;61.50;;;;;;10418501;28;20055;-59
2022/05/13 08:43:41;;;;;;;1.45;0.20;;;17.60;60.30;;;;;;10421793;28;20041;-59
2022/05/13 08:49:15;;;;;;;4.00;0.20;;;17.70;62.00;;;;;;10423746;28;20501;-59
2022/05/13 08:54:20;;;;;;;0.80;0.20;;;17.40;59.30;;;;;;10398586;28;20068;-59
2022/05/13 08:59:27;;;;;;;1.08;0.10;;;17.40;60.80;;;;;;10421417;28;20072;-59
2022/05/13 09:04:41;;;;;;;7.53;0.50;;;17.70;59.70;;;;;;10409162;28;20400;-59
2022/05/13 09:09:51;;;;;;;6.85;0.47;;;17.70;60.50;;;;;;10422073;28;20115;-59
2022/05/13 09:15:17;;;;;;;3.30;0.20;;;17.90;60.60;;;;;;10420907;28;20049;-59
2022/05/13 09:20:22;;;;;;;2.30;0.20;;;17.70;59.40;;;;;;10420381;28;20447;-59
2022/05/13 09:25:27;;;;;;;2.17;0.20;;;17.60;59.90;;;;;;10422327;28;20052;-59
2022/05/13 09:30:35;;;;;;;0.90;0.20;;;17.90;62.50;;;;;;10415045;28;20080;-59
2022/05/13 09:35:41;;;;;;;1.25;0.20;;;17.50;61.40;;;;;;10419448;28;20076;-58
2022/05/13 09:41:03;;;;;;;0.73;0.20;;;18.20;63.80;;;;;;10426704;28;20411;-60
2022/05/13 09:46:22;;;;;;;3.13;0.40;;;18.10;62.20;;;;;;10421064;28;20083;-58
2022/05/13 09:51:35;;;;;;;2.05;0.70;;;18.40;64.10;;;;;;10417165;28;20059;-57
2022/05/13 09:56:43;;;;;;;2.05;0.45;;;18.00;62.30;;;;;;10417221;28;20499;-58
2022/05/13 10:01:45;;;;;;;1.48;0.20;;;18.10;63.00;;;;;;10420454;28;20499;-58
2022/05/13 10:06:48;;;;;;;3.78;0.43;;;18.10;62.90;;;;;;10422372;28;20056;-58
2022/05/13 10:17:43;;;;;;;4.00;0.32;;;18.10;59.50;;;;;;10414637;28;20141;-58
2022/05/13 10:22:59;;;;;;;3.22;0.35;;;18.00;59.90;;;;;;10420323;28;20455;-59
2022/05/13 10:28:07;;;;;;;0.75;0.20;;;18.60;59.70;;;;;;10419859;28;20056;-58
2022/05/13 10:33:16;;;;;;;3.13;0.30;;;18.60;58.40;;;;;;10420835;28;20057;-58
2022/05/13 10:38:59;;;;;;;1.90;0.15;;;18.50;58.50;;;;;;10419137;28;20064;-59
2022/05/13 10:44:27;;;;;;;1.45;0.20;;;19.00;57.80;;;;;;10373750;28;20068;-59
2022/05/13 10:49:39;;;;;;;1.95;0.20;;;19.20;58.00;;;;;;10402172;28;20049;-59
2022/05/13 10:54:53;;;;;;;3.25;0.20;;;19.20;56.40;;;;;;10403869;28;20064;-59
2022/05/13 11:00:12;;;;;;;4.05;0.43;;;19.40;55.80;;;;;;10418031;28;20053;-59
2022/05/13 11:05:20;;;;;;;4.75;0.30;;;19.80;56.00;;;;;;10418719;28;20056;-59
2022/05/13 11:10:35;;;;;;;16.55;5.00;;;19.80;55.60;;;;;;10420475;28;20511;-60
2022/05/13 11:15:59;;;;;;;0.77;0.25;;;20.00;55.30;;;;;;10419928;28;20068;-59
2022/05/13 11:21:28;;;;;;;1.70;0.22;;;20.30;54.30;;;;;;10425026;28;20415;-58
2022/05/13 11:26:41;;;;;;;1.67;0.20;;;20.40;54.70;;;;;;10424273;28;20045;-58
2022/05/13 11:32:09;;;;;;;7.38;0.10;;;20.20;54.50;;;;;;10418458;28;20037;-58
2022/05/13 11:37:15;;;;;;;1.00;0.20;;;20.20;54.70;;;;;;10401368;28;20056;-58
2022/05/13 11:43:18;;;;;;;1.45;0.15;;;20.00;55.20;;;;;;10422356;28;20053;-58
2022/05/13 11:48:11;;;;;;;3.03;0.20;;;20.30;55.60;;;;;;10417759;28;20102;-57
2022/05/13 11:53:43;;;;;;;1.70;0.10;;;21.00;54.90;;;;;;10418142;28;20057;-59
2022/05/13 11:58:49;;;;;;;2.17;0.10;;;20.80;52.90;;;;;;10423143;28;20056;-56
2022/05/13 12:04:16;;;;;;;6.07;0.30;;;20.80;52.20;;;;;;10420139;28;20160;-56
2022/05/13 12:09:38;;;;;;;3.33;0.10;;;20.50;51.80;;;;;;10424704;28;20068;-56
2022/05/13 12:15:05;;;;;;;0.45;0.20;;;20.30;52.50;;;;;;10421450;28;20049;-57
2022/05/13 12:20:16;;;;;;;2.08;0.13;;;20.70;51.70;;;;;;10426169;28;20049;-56
2022/05/13 12:25:26;;;;;;;1.42;0.20;;;21.20;52.10;;;;;;10422388;28;20057;-55
2022/05/13 12:30:30;;;;;;;3.10;0.10;;;21.30;50.20;;;;;;10418935;28;20045;-56
2022/05/13 12:41:16;;;;;;;0.68;0.20;;;21.40;49.50;;;;;;10423518;28;20103;-57
2022/05/13 12:46:39;;;;;;;2.85;0.10;;;21.60;49.10;;;;;;10419939;28;20281;-56
2022/05/13 12:52:11;;;;;;;2.67;0.30;;;21.40;49.80;;;;;;10420308;28;20048;-56
2022/05/13 12:57:24;;;;;;;0.77;0.10;;;21.50;49.00;;;;;;10365009;28;20053;-60
2022/05/13 13:02:39;;;;;;;0.38;0.13;;;21.50;49.60;;;;;;10424103;28;20063;-59
2022/05/13 13:07:41;;;;;;;3.55;0.10;;;21.60;48.50;;;;;;10428269;28;20049;-59
2022/05/13 13:13:25;;;;;;;1.85;0.20;;;21.50;50.00;;;;;;10426329;28;20053;-57
2022/05/13 13:18:35;;;;;;;4.07;0.20;;;21.60;49.50;;;;;;10409870;28;20052;-58
2022/05/13 13:23:42;;;;;;;3.45;0.10;;;21.80;49.50;;;;;;10424805;28;20075;-58
2022/05/13 13:28:53;;;;;;;1.13;0.20;;;21.80;48.60;;;;;;10407111;28;20072;-57
2022/05/13 13:33:56;;;;;;;1.48;0.10;;;22.10;48.20;;;;;;10407952;28;20548;-57
2022/05/13 13:39:00;;;;;;;3.58;0.10;;;22.30;48.20;;;;;;10420699;28;20083;-58
2022/05/13 13:44:08;;;;;;;1.23;0.15;;;22.50;48.00;;;;;;10427774;28;20562;-57
2022/05/13 13:49:33;;;;;;;0.52;0.10;;;22.10;47.60;;;;;;10425306;28;20103;-57
2022/05/13 13:54:38;;;;;;;2.10;0.15;;;22.00;48.50;;;;;;10426607;28;20163;-57
2022/05/13 14:00:06;;;;;;;0.50;0.20;;;22.20;47.90;;;;;;10422491;28;20123;-57
2022/05/13 14:05:11;;;;;;;2.55;0.40;;;22.30;48.00;;;;;;10416515;28;20104;-58
2022/05/13 14:10:15;;;;;;;;;;;22.60;47.00;;;;;;10415736;28;20057;-57
2022/05/13 14:15:17;;;;;;;1.08;0.03;;;22.80;47.80;;;;;;10420931;28;19956;-57
2022/05/13 14:20:35;;;;;;;2.17;0.10;;;22.90;47.50;;;;;;10414184;28;20042;-58
2022/05/13 14:25:54;;;;;;;4.57;0.17;;;23.00;47.10;;;;;;10418081;28;20050;-58
2022/05/13 14:30:59;;;;;;;0.20;0.10;;;23.00;46.60;;;;;;10409501;28;20697;-57
2022/05/13 14:36:07;;;;;;;1.00;0.20;;;23.50;45.80;;;;;;10417441;28;20107;-57
2022/05/13 14:41:10;;;;;;;1.80;0.20;;;22.90;46.20;;;;;;10414139;28;20045;-59
2022/05/13 14:46:13;;;;;;;1.75;0.10;;;22.90;46.10;;;;;;10420107;28;20049;-60
2022/05/13 14:51:22;;;;;;;1.27;0.40;;;22.90;46.70;;;;;;10412220;28;20049;-60
2022/05/13 14:56:27;;;;;;;0.28;0.10;;;23.00;45.80;;;;;;10397532;28;20127;-62
2022/05/13 15:01:36;;;;;;;1.67;0.10;;;22.90;46.50;;;;;;10418476;28;20049;-61
2022/05/13 15:06:44;;;;;;;5.18;0.10;;;23.40;45.20;;;;;;10418234;28;20068;-60
2022/05/13 15:11:48;;;;;;;1.75;0.10;;;23.10;46.30;;;;;;10405327;28;20104;-60
2022/05/13 15:16:50;;;;;;;1.10;0.20;;;23.60;45.60;;;;;;10414140;28;20134;-61
2022/05/13 15:22:13;;;;;;;5.15;0.28;;;23.90;45.30;;;;;;10397247;28;20545;-60
2022/05/13 15:27:18;;;;;;;0.45;0.10;;;24.10;44.30;;;;;;10409732;28;20063;-60
2022/05/13 15:32:22;;;;;;;3.93;0.20;;;24.20;44.20;;;;;;10418606;28;20395;-60
2022/05/13 15:37:25;;;;;;;1.55;0.10;;;23.70;44.50;;;;;;10399484;28;20860;-60
2022/05/13 15:42:27;;;;;;;2.65;0.10;;;23.80;44.20;;;;;;10421456;28;20111;-62
2022/05/13 15:47:30;;;;;;;1.83;0.20;;;23.20;44.80;;;;;;10413884;28;20523;-61
2022/05/13 15:52:52;;;;;;;0.35;0.10;;;23.50;45.00;;;;;;10413577;28;20045;-60
2022/05/13 15:57:55;;;;;;;2.17;0.10;;;23.30;45.20;;;;;;10399345;28;20084;-61
2022/05/13 16:02:59;;;;;;;1.38;0.30;;;23.50;45.80;;;;;;10428038;28;20067;-61
2022/05/13 16:08:01;;;;;;;1.02;0.10;;;23.70;44.50;;;;;;10425306;28;20060;-60
2022/05/13 16:13:13;;;;;;;1.50;0.10;;;23.50;45.00;;;;;;10427044;28;20052;-60
2022/05/13 16:18:19;;;;;;;2.22;0.20;;;23.50;45.30;;;;;;10424496;28;20495;-60
2022/05/13 16:23:25;;;;;;;3.20;0.10;;;23.70;46.00;;;;;;10426515;28;20045;-60
2022/05/13 16:28:28;;;;;;;3.25;0.25;;;23.50;45.70;;;;;;10427014;28;20364;-60
2022/05/13 16:33:29;;;;;;;1.13;0.30;;;23.90;46.10;;;;;;10423679;28;20048;-60
2022/05/13 16:38:31;;;;;;;2.83;0.10;;;24.10;45.40;;;;;;10406937;28;20114;-60
2022/05/13 16:43:33;;;;;;;0.10;0.10;;;24.20;44.20;;;;;;10433965;28;20052;-60
2022/05/13 16:48:35;;;;;;;0.57;0.10;;;24.10;44.80;;;;;;10435096;28;20107;-60
2022/05/13 16:53:38;;;;;;;3.55;0.10;;;23.90;45.10;;;;;;10422877;28;20053;-59
2022/05/13 16:58:40;;;;;;;1.30;0.10;;;23.70;44.40;;;;;;10427978;28;20072;-60
2022/05/13 17:03:42;;;;;;;1.75;0.10;;;23.60;45.10;;;;;;10426328;28;20554;-60
2022/05/13 17:19:26;;;;;;;2.83;0.10;;;22.80;46.20;;;;;;10403613;28;20519;-60
2022/05/13 17:24:32;;;;;;;0.90;0.10;;;22.70;46.80;;;;;;10416888;28;20514;-59
2022/05/13 17:29:35;;;;;;;1.13;0.10;;;22.60;47.40;;;;;;10420454;28;20060;-61
2022/05/13 17:34:37;;;;;;;1.15;0.10;;;22.50;48.30;;;;;;10404850;28;20052;-60
2022/05/13 17:39:39;;;;;;;1.48;0.10;;;22.50;48.60;;;;;;10424297;28;20055;-60
2022/05/13 17:44:40;;;;;;;1.98;0.10;;;22.30;48.90;;;;;;10417488;28;20460;-60
2022/05/13 17:49:42;;;;;;;1.77;0.00;;;22.30;49.10;;;;;;10415519;28;20057;-59
2022/05/13 17:54:44;;;;;;;1.95;0.20;;;22.30;50.20;;;;;;10401645;28;20061;-60
2022/05/13 17:59:45;;;;;;;3.28;0.30;;;22.30;50.20;;;;;;10419839;28;20487;-61
2022/05/13 18:04:47;;;;;;;7.25;0.20;;;22.20;50.90;;;;;;10424475;28;20099;-60
2022/05/13 18:09:49;;;;;;;2.03;0.20;;;22.10;52.00;;;;;;10403480;28;20472;-59
2022/05/13 18:14:51;;;;;;;1.58;0.13;;;21.80;52.90;;;;;;10418566;28;20056;-60
2022/05/13 18:19:55;;;;;;;1.52;0.17;;;21.80;53.80;;;;;;10418744;28;20750;-62
2022/05/13 18:24:56;;;;;;;0.85;0.30;;;21.50;53.90;;;;;;10421947;28;20484;-62
2022/05/13 18:29:58;;;;;;;0.93;0.13;;;21.20;54.70;;;;;;10403499;28;20110;-60
2022/05/13 18:35:00;;;;;;;1.13;0.32;;;21.00;55.70;;;;;;10420505;28;20317;-60
2022/05/13 18:50:43;;;;;;;6.25;0.40;;;20.20;59.10;;;;;;10418910;28;20410;-60
2022/05/13 18:55:45;;;;;;;2.55;0.30;;;20.00;59.90;;;;;;10413065;28;20123;-61
2022/05/13 19:00:46;;;;;;;5.38;0.40;;;19.90;60.70;;;;;;10418687;28;20183;-61
2022/05/13 19:05:49;;;;;;;1.65;0.60;;;19.70;61.40;;;;;;10415646;28;20048;-61
2022/05/13 19:10:52;;;;;;;2.92;0.30;;;19.40;63.60;;;;;;10417274;28;20107;-61
2022/05/13 19:15:55;;;;;;;1.55;0.40;;;19.30;65.30;;;;;;10411958;28;20048;-61
2022/05/13 19:20:57;;;;;;;1.88;0.40;;;19.10;66.70;;;;;;10412063;28;20049;-59
2022/05/13 19:26:06;;;;;;;7.22;0.60;;;18.90;66.60;;;;;;10417770;28;20059;-60
2022/05/13 19:31:10;;;;;;;4.82;1.00;;;18.70;67.60;;;;;;10416902;28;20114;-59
2022/05/13 19:36:13;;;;;;;10.10;0.93;;;18.60;68.70;;;;;;10415067;28;20137;-57
2022/05/13 19:41:16;;;;;;;2.25;0.40;;;18.40;70.70;;;;;;10419723;28;20098;-58
2022/05/13 19:46:20;;;;;;;1.25;0.47;;;18.30;70.50;;;;;;10413050;28;20064;-58
2022/05/13 19:51:22;;;;;;;3.38;0.70;;;18.00;71.30;;;;;;10418837;28;20064;-58
2022/05/13 19:56:24;;;;;;;4.15;0.60;;;17.90;71.10;;;;;;10414291;28;20139;-57
2022/05/13 20:01:26;;;;;;;3.53;0.52;;;17.70;72.10;;;;;;10419772;28;20057;-57
2022/05/13 20:11:48;;;;;;;6.38;0.60;;;17.40;76.00;;;;;;10410761;28;20099;-57
2022/05/13 20:16:51;;;;;;;7.60;1.77;;;17.10;77.20;;;;;;10419485;28;20081;-57
2022/05/13 20:27:15;;;;;;;8.38;2.80;;;16.90;80.00;;;;;;10420208;28;20103;-56
2022/05/13 20:32:17;;;;;;;7.03;3.25;;;16.80;82.30;;;;;;10413630;28;20510;-59
2022/05/13 20:37:19;;;;;;;6.00;2.17;;;16.70;83.20;;;;;;10424432;28;20110;-56
2022/05/13 20:42:21;;;;;;;4.85;2.15;;;16.50;84.40;;;;;;10420367;28;20404;-58
2022/05/13 20:47:22;;;;;;;9.23;2.17;;;16.30;87.60;;;;;;10426996;28;20041;-58
2022/05/13 20:52:24;;;;;;;6.38;2.05;;;16.20;89.80;;;;;;10423505;28;20052;-56
2022/05/13 20:57:25;;;;;;;4.97;1.58;;;15.90;91.20;;;;;;10406193;28;20060;-56
2022/05/13 21:02:27;;;;;;;5.32;1.50;;;16.00;91.50;;;;;;10423291;28;20060;-56
2022/05/13 21:07:31;;;;;;;4.57;1.70;;;15.90;91.60;;;;;;10409888;28;20068;-57
2022/05/13 21:14:14;;;;;;;8.65;3.15;;;15.60;92.60;;;;;;10365519;27;20453;-58
2022/05/13 21:19:16;;;;;;;15.02;5.82;;;15.50;94.20;;;;;;10362220;28;20080;-59
2022/05/13 21:24:17;;;;;;;15.45;5.80;;;15.40;94.30;;;;;;10398827;28;20100;-58
2022/05/13 21:29:19;;;;;;;11.63;5.63;;;15.20;95.80;;;;;;10419970;28;20554;-58
2022/05/13 21:39:44;;;;;;;5.68;3.03;;;15.10;97.00;;;;;;10418389;28;20044;-57
2022/05/13 21:44:45;;;;;;;5.43;2.15;;;15.00;97.70;;;;;;10412717;28;20329;-59
2022/05/13 21:49:48;;;;;;;5.70;2.15;;;14.90;97.50;;;;;;10418752;28;20099;-58
2022/05/13 21:54:51;;;;;;;5.22;1.80;;;14.80;97.50;;;;;;10415378;28;20053;-59
2022/05/13 21:59:54;;;;;;;4.38;1.23;;;14.70;97.60;;;;;;10417310;28;20056;-60
2022/05/13 22:04:55;;;;;;;6.75;1.55;;;14.50;97.80;;;;;;10422890;28;20053;-60
2022/05/13 22:09:57;;;;;;;6.85;1.30;;;14.50;98.00;;;;;;10419961;28;20104;-59
2022/05/13 22:14:59;;;;;;;4.55;1.30;;;14.30;98.70;;;;;;10415562;28;20041;-60
2022/05/13 22:20:03;;;;;;;5.57;1.10;;;14.30;99.50;;;;;;10421064;28;20484;-60
2022/05/13 22:25:06;;;;;;;4.13;0.98;;;14.30;99.80;;;;;;10395546;28;20049;-60
2022/05/13 22:30:09;;;;;;;5.45;0.63;;;14.10;99.60;;;;;;10393340;28;20049;-59
2022/05/13 22:35:11;;;;;;;5.28;1.02;;;14.10;99.90;;;;;;10376010;28;20053;-59
2022/05/13 22:40:13;;;;;;;3.55;0.32;;;14.00;99.90;;;;;;10391064;28;20049;-60
2022/05/13 22:45:16;;;;;;;2.40;0.70;;;13.90;99.90;;;;;;10389715;28;20049;-59
2022/05/13 22:50:18;;;;;;;1.30;0.50;;;13.90;99.90;;;;;;10390935;28;20057;-59
2022/05/13 22:55:19;;;;;;;1.70;0.60;;;13.80;99.90;;;;;;10391888;28;20661;-57
2022/05/13 23:00:21;;;;;;;1.92;0.50;;;13.60;99.90;;;;;;10392454;28;20041;-57
2022/05/13 23:05:24;;;;;;;3.67;0.82;;;13.40;99.90;;;;;;10387131;28;20412;-58
2022/05/13 23:15:37;;;;;;;2.53;0.43;;;13.10;99.90;;;;;;10388229;28;20484;-60
2022/05/13 23:20:41;;;;;;;4.93;0.60;;;13.10;99.90;;;;;;10388169;28;20587;-61
2022/05/13 23:25:42;;;;;;;3.95;0.68;;;13.10;99.90;;;;;;10389257;28;20128;-58
2022/05/13 23:30:44;;;;;;;3.30;0.80;;;13.00;99.90;;;;;;10387391;28;20041;-58
2022/05/13 23:35:47;;;;;;;5.13;1.00;;;13.00;99.90;;;;;;10386427;28;20126;-57
2022/05/13 23:40:49;;;;;;;3.47;0.63;;;13.00;99.90;;;;;;10388878;28;20050;-58
2022/05/13 23:45:50;;;;;;;1.40;0.55;;;13.00;99.90;;;;;;10388910;28;20381;-62
2022/05/13 23:50:52;;;;;;;1.50;0.50;;;12.80;99.90;;;;;;10388940;28;20073;-61
2022/05/13 23:56:01;;;;;;;4.45;0.60;;;12.80;99.90;;;;;;10389560;28;20393;-61
